Terminal Aerodrome Forecast
Issued by NWS

Home | Current Version | Previous Version | Text Only | Print | Product List | Glossary On
Versions: 1 2 3 4 5 6 7 8 9 10 11 12 13 14 15 16 17
000
FTUS45 KTFX 030520
TAFHVR
TAF
KHVR 030520Z 0306/0406 09010KT P6SM VCSH SCT025 OVC040
      TEMPO 0306/0309 -SHRA BKN025
     FM031400 15007KT P6SM SCT035 BKN060
     FM040000 10010KT P6SM VCSH SCT030 BKN050 PROB30 0402/0406 -TSRA
      BKN030CB=

USA.gov is the U.S. government's official web portal to all federal, state and local government web resources and services.